createdAt,value
2018-12-12T00:01:57.515Z,372.75
2018-12-12T00:04:31.256Z,344.50
2018-12-12T00:07:20.379Z,341.75
2018-12-12T00:09:53.195Z,337.25
2018-12-12T00:12:24.998Z,334.50
2018-12-12T00:14:57.861Z,338.75
2018-12-12T00:17:29.877Z,346.25
2018-12-12T00:20:03.900Z,338.75
2018-12-12T00:22:35.832Z,377.75
2018-12-12T00:25:07.757Z,342.75
2018-12-12T00:27:39.515Z,335.25
2018-12-12T00:30:11.441Z,342.25
2018-12-12T00:32:43.305Z,339.75
2018-12-12T00:35:15.165Z,332.25
2018-12-12T00:37:47.953Z,364.75
2018-12-12T00:40:19.774Z,350.75
2018-12-12T00:42:51.824Z,330.50
2018-12-12T00:45:24.170Z,341.75
2018-12-12T00:47:55.892Z,354.25
2018-12-12T00:50:27.850Z,390.75
2018-12-12T00:52:59.689Z,342.50
2018-12-12T00:55:31.475Z,338.75
2018-12-12T00:58:03.049Z,345.50
2018-12-12T01:00:34.711Z,365.75
2018-12-12T01:03:06.673Z,337.00
2018-12-12T01:05:38.591Z,355.00
2018-12-12T01:08:10.653Z,364.75
2018-12-12T01:10:42.699Z,339.50
2018-12-12T01:13:14.860Z,361.00
2018-12-12T01:15:46.811Z,359.25
2018-12-12T01:18:18.873Z,306.50
2018-12-12T01:20:50.957Z,327.75
2018-12-12T01:23:22.651Z,339.75
2018-12-12T01:25:54.394Z,336.50
2018-12-12T01:28:26.096Z,344.50
2018-12-12T01:30:58.054Z,330.75
2018-12-12T01:33:29.994Z,324.50
2018-12-12T01:36:01.807Z,338.75
2018-12-12T01:38:33.559Z,325.75
2018-12-12T01:41:05.331Z,327.25
2018-12-12T01:43:36.919Z,332.50
2018-12-12T01:46:09.185Z,345.50
2018-12-12T01:48:41.133Z,308.75
2018-12-12T01:51:12.879Z,320.50
2018-12-12T01:53:47.169Z,325.00
2018-12-12T01:56:19.088Z,341.00
2018-12-12T01:58:50.693Z,305.50
2018-12-12T02:01:22.388Z,333.75
2018-12-12T02:03:54.155Z,340.25
2018-12-12T02:06:26.089Z,329.25
2018-12-12T02:08:58.034Z,350.50
2018-12-12T02:11:29.899Z,309.00
2018-12-12T02:14:01.516Z,324.25
2018-12-12T02:16:33.962Z,314.75
2018-12-12T02:19:06.147Z,353.25
2018-12-12T02:21:37.795Z,340.25
2018-12-12T02:24:09.647Z,355.50
2018-12-12T02:26:41.514Z,325.50
2018-12-12T02:29:12.978Z,349.75
2018-12-12T02:31:44.976Z,365.25
2018-12-12T02:34:16.880Z,338.75
2018-12-12T02:36:48.798Z,316.00
2018-12-12T02:39:20.534Z,327.50
2018-12-12T02:41:52.299Z,332.25
2018-12-12T02:44:24.465Z,357.25
2018-12-12T02:46:57.245Z,337.75
2018-12-12T02:49:29.107Z,324.25
2018-12-12T02:52:01.315Z,336.75
2018-12-12T02:54:33.223Z,362.00
2018-12-12T02:57:04.953Z,350.50
2018-12-12T02:59:36.766Z,358.75
2018-12-12T03:02:08.558Z,349.75
2018-12-12T03:04:42.267Z,324.25
2018-12-12T03:07:14.371Z,374.25
2018-12-12T03:09:46.273Z,343.25
2018-12-12T03:12:18.173Z,332.25
2018-12-12T03:14:49.731Z,389.00
2018-12-12T03:17:22.382Z,372.75
2018-12-12T03:19:54.193Z,369.25
2018-12-12T03:22:26.042Z,381.75
2018-12-12T03:24:57.717Z,376.50
2018-12-12T03:27:29.552Z,366.75
2018-12-12T03:30:01.256Z,410.00
2018-12-12T03:32:33.267Z,399.00
2018-12-12T03:35:05.320Z,403.00
2018-12-12T03:37:39.341Z,403.25
2018-12-12T03:40:12.864Z,430.75
2018-12-12T03:42:45.041Z,460.40
2018-12-12T03:45:17.018Z,459.80
2018-12-12T03:47:49.216Z,462.80
2018-12-12T03:50:20.873Z,430.50
2018-12-12T03:52:52.535Z,450.25
2018-12-12T03:55:24.576Z,409.25
2018-12-12T03:57:56.003Z,425.00
2018-12-12T04:00:28.866Z,444.25
2018-12-12T04:03:01.021Z,406.25
2018-12-12T04:05:33.101Z,397.75
2018-12-12T04:08:07.256Z,346.00
2018-12-12T04:10:40.313Z,359.75
2018-12-12T04:13:12.888Z,373.25
2018-12-12T04:15:45.497Z,330.25
2018-12-12T04:18:19.849Z,326.75
2018-12-12T04:20:52.978Z,288.00
2018-12-12T04:23:24.713Z,302.50
2018-12-12T04:25:56.834Z,308.50
2018-12-12T04:28:29.488Z,269.00
2018-12-12T04:31:01.503Z,297.75
2018-12-12T04:33:33.251Z,322.25
2018-12-12T04:36:05.092Z,296.50
2018-12-12T04:38:36.871Z,310.00
2018-12-12T04:41:09.012Z,312.00
2018-12-12T04:43:40.588Z,332.25
2018-12-12T04:46:12.578Z,346.00
2018-12-12T04:48:44.711Z,354.00
2018-12-12T04:51:16.620Z,367.50
2018-12-12T04:53:48.712Z,356.50
2018-12-12T04:56:20.751Z,387.25
2018-12-12T04:58:53.426Z,355.00
2018-12-12T05:01:25.812Z,311.75
2018-12-12T05:03:57.524Z,323.50
2018-12-12T05:06:29.006Z,311.00
2018-12-12T05:09:00.803Z,311.50
2018-12-12T05:11:34.517Z,295.00
2018-12-12T05:14:07.177Z,298.75
2018-12-12T05:16:39.075Z,300.25
2018-12-12T05:19:11.473Z,300.75
2018-12-12T05:21:43.518Z,315.75
2018-12-12T05:24:15.393Z,287.00
2018-12-12T05:26:47.071Z,317.75
2018-12-12T05:29:19.031Z,299.25
2018-12-12T05:31:51.414Z,290.75
2018-12-12T05:34:23.273Z,279.00
2018-12-12T05:36:57.770Z,270.00
2018-12-12T05:39:29.460Z,285.75
2018-12-12T05:42:01.459Z,276.25
2018-12-12T05:44:33.130Z,270.00
2018-12-12T05:47:04.928Z,287.75
2018-12-12T05:49:38.706Z,303.75
2018-12-12T05:52:10.414Z,300.75
2018-12-12T05:54:42.267Z,294.50
2018-12-12T05:57:13.981Z,298.75
2018-12-12T05:59:45.785Z,274.00
2018-12-12T06:02:17.742Z,292.00
2018-12-12T06:04:49.519Z,257.25
2018-12-12T06:07:21.291Z,280.25
2018-12-12T06:09:53.111Z,277.00
2018-12-12T06:12:25.039Z,279.75
2018-12-12T06:14:56.851Z,258.75
2018-12-12T06:17:29.800Z,292.50
2018-12-12T06:20:02.072Z,294.75
2018-12-12T06:22:37.695Z,255.00
2018-12-12T06:25:07.889Z,299.75
2018-12-12T06:27:39.564Z,302.75
2018-12-12T06:30:11.983Z,294.00
2018-12-12T06:32:44.960Z,294.75
2018-12-12T06:35:16.756Z,301.00
2018-12-12T06:37:48.723Z,299.75
2018-12-12T06:40:21.513Z,315.75
2018-12-12T06:42:53.962Z,333.00
2018-12-12T06:45:25.920Z,333.50
2018-12-12T06:47:57.792Z,329.50
2018-12-12T06:50:30.953Z,317.25
2018-12-12T06:53:02.845Z,334.75
2018-12-12T06:55:35.304Z,329.00
2018-12-12T06:58:07.117Z,316.00
2018-12-12T07:00:38.924Z,319.50
2018-12-12T07:03:10.814Z,334.75
2018-12-12T07:05:42.477Z,310.50
2018-12-12T07:08:14.845Z,319.50
2018-12-12T07:10:46.782Z,362.00
2018-12-12T07:13:18.643Z,315.25
2018-12-12T07:15:51.277Z,319.25
2018-12-12T07:18:23.399Z,329.25
2018-12-12T07:20:55.506Z,343.25
2018-12-12T07:23:27.331Z,344.75
2018-12-12T07:25:58.898Z,340.00
2018-12-12T07:28:30.736Z,321.75
2018-12-12T07:31:02.560Z,354.25
2018-12-12T07:33:35.546Z,343.25
2018-12-12T07:36:07.386Z,353.50
2018-12-12T07:38:38.898Z,333.00
2018-12-12T07:41:11.825Z,310.75
2018-12-12T07:43:46.145Z,310.50
2018-12-12T07:46:24.044Z,273.75
2018-12-12T07:48:58.025Z,259.00
2018-12-12T07:51:50.352Z,263.00
2018-12-12T07:54:22.294Z,248.75
2018-12-12T07:56:54.041Z,242.25
2018-12-12T07:59:26.281Z,253.00
2018-12-12T08:01:57.858Z,221.60
2018-12-12T08:04:29.641Z,236.40
2018-12-12T08:07:01.210Z,235.25
2018-12-12T08:09:34.041Z,255.50
2018-12-12T08:12:05.698Z,247.50
2018-12-12T08:14:38.657Z,270.25
2018-12-12T08:17:10.896Z,223.00
2018-12-12T08:19:42.908Z,237.25
2018-12-12T08:22:15.420Z,233.75
2018-12-12T08:24:47.273Z,230.00
2018-12-12T08:27:19.030Z,243.25
2018-12-12T08:29:50.798Z,255.75
2018-12-12T08:32:22.551Z,247.75
2018-12-12T08:34:54.560Z,238.25
2018-12-12T08:37:26.390Z,191.40
2018-12-12T08:39:58.040Z,152.80
2018-12-12T08:42:30.109Z,163.80
2018-12-12T08:45:02.244Z,168.80
2018-12-12T08:47:34.741Z,186.80
2018-12-12T08:50:07.445Z,164.60
2018-12-12T08:52:39.596Z,126.00
2018-12-12T08:55:17.432Z,121.20
2018-12-12T08:57:45.365Z,132.40
2018-12-12T09:00:17.121Z,122.20
2018-12-12T09:02:48.948Z,110.80
2018-12-12T09:05:20.869Z,121.80
2018-12-12T09:07:52.677Z,128.20
2018-12-12T09:10:24.590Z,107.80
2018-12-12T09:12:56.539Z,103.20
2018-12-12T09:15:28.332Z,100.80
2018-12-12T09:17:59.988Z,101.80
2018-12-12T09:20:31.857Z,87.80
2018-12-12T09:23:04.281Z,105.20
2018-12-12T09:25:36.054Z,110.80
2018-12-12T09:28:09.146Z,100.60
2018-12-12T09:30:43.205Z,107.80
2018-12-12T09:33:17.060Z,97.40
2018-12-12T09:35:54.407Z,97.60
2018-12-12T09:38:26.615Z,91.40
2018-12-12T09:40:58.936Z,102.20
2018-12-12T09:43:30.878Z,96.40
2018-12-12T09:46:03.050Z,99.00
2018-12-12T09:48:34.669Z,100.40
2018-12-12T09:51:07.521Z,97.00
2018-12-12T09:53:42.126Z,83.00
2018-12-12T09:56:13.952Z,93.60
2018-12-12T09:58:46.433Z,99.40
2018-12-12T10:01:18.500Z,97.60
2018-12-12T10:03:50.386Z,94.60
2018-12-12T10:06:22.049Z,102.40
2018-12-12T10:08:53.767Z,93.60
2018-12-12T10:11:25.495Z,104.80
2018-12-12T10:14:00.323Z,107.60
2018-12-12T10:16:33.642Z,96.20
2018-12-12T10:19:10.945Z,107.20
2018-12-12T10:21:46.487Z,108.20
2018-12-12T10:24:19.223Z,114.20
2018-12-12T10:26:51.174Z,115.60
2018-12-12T10:29:22.962Z,115.40
2018-12-12T10:31:55.379Z,103.00
2018-12-12T10:34:27.243Z,108.60
2018-12-12T10:36:59.669Z,107.60
2018-12-12T10:39:31.710Z,107.80
2018-12-12T10:42:03.603Z,111.20
2018-12-12T10:44:35.513Z,104.40
2018-12-12T10:47:07.232Z,107.60
2018-12-12T10:49:39.868Z,114.80
2018-12-12T10:52:12.039Z,109.80
2018-12-12T10:54:44.167Z,106.20
2018-12-12T10:57:16.085Z,108.20
2018-12-12T10:59:48.152Z,113.20
2018-12-12T11:02:24.564Z,104.80
2018-12-12T11:04:56.400Z,112.20
2018-12-12T11:07:28.522Z,98.60
2018-12-12T11:10:01.195Z,102.20
2018-12-12T11:12:35.903Z,113.80
2018-12-12T11:15:07.711Z,103.00
2018-12-12T11:17:39.737Z,108.40
2018-12-12T11:20:12.325Z,109.40
2018-12-12T11:22:44.224Z,117.40
2018-12-12T11:25:16.421Z,126.60
2018-12-12T11:27:48.785Z,102.00
2018-12-12T11:30:20.734Z,118.80
2018-12-12T11:32:52.651Z,122.20
2018-12-12T11:35:25.436Z,120.80
2018-12-12T11:37:58.268Z,125.40
2018-12-12T11:40:30.175Z,136.20
2018-12-12T11:43:01.959Z,121.60
2018-12-12T11:45:33.638Z,140.40
2018-12-12T11:48:06.564Z,146.60
2018-12-12T11:50:38.254Z,141.60
2018-12-12T11:53:09.964Z,147.00
2018-12-12T11:55:42.225Z,138.00
2018-12-12T11:58:14.275Z,143.60
2018-12-12T12:00:46.232Z,134.00
2018-12-12T12:03:17.884Z,125.80
2018-12-12T12:05:51.012Z,127.00
2018-12-12T12:08:22.912Z,127.40
2018-12-12T12:10:54.747Z,142.20
2018-12-12T12:13:28.835Z,142.60
2018-12-12T12:16:00.509Z,131.00
2018-12-12T12:18:32.278Z,133.40
2018-12-12T12:21:04.192Z,147.00
2018-12-12T12:23:36.164Z,150.40
2018-12-12T12:26:09.515Z,168.60
2018-12-12T12:28:41.208Z,186.40
2018-12-12T12:31:12.873Z,170.20
2018-12-12T12:33:45.012Z,172.60
2018-12-12T12:36:16.758Z,178.40
2018-12-12T12:38:48.839Z,177.80
2018-12-12T12:41:20.657Z,190.20
2018-12-12T12:43:52.677Z,184.40
2018-12-12T12:46:27.164Z,182.20
2018-12-12T12:48:59.279Z,198.25
2018-12-12T12:51:31.160Z,199.25
2018-12-12T12:54:02.924Z,203.00
2018-12-12T12:56:35.420Z,215.50
2018-12-12T12:59:06.944Z,212.75
2018-12-12T13:01:38.881Z,202.00
2018-12-12T13:04:10.343Z,206.25
2018-12-12T13:06:42.517Z,194.75
2018-12-12T13:09:14.304Z,206.00
2018-12-12T13:11:46.248Z,195.25
2018-12-12T13:14:18.264Z,214.00
2018-12-12T13:16:50.448Z,225.25
2018-12-12T13:19:22.439Z,207.00
2018-12-12T13:21:53.849Z,224.25
2018-12-12T13:24:25.708Z,221.50
2018-12-12T13:26:57.939Z,229.00
2018-12-12T13:29:29.919Z,251.25
2018-12-12T13:32:01.566Z,273.50
2018-12-12T13:34:33.644Z,258.50
2018-12-12T13:37:05.659Z,266.50
2018-12-12T13:39:37.287Z,263.25
2018-12-12T13:42:09.277Z,287.25
2018-12-12T13:44:41.101Z,282.50
2018-12-12T13:47:17.326Z,259.75
2018-12-12T13:49:47.221Z,272.25
2018-12-12T13:52:19.218Z,280.25
2018-12-12T13:54:51.336Z,280.25
2018-12-12T13:57:23.800Z,281.75
2018-12-12T13:59:55.582Z,279.75
2018-12-12T14:02:29.345Z,280.50
2018-12-12T14:05:01.597Z,269.25
2018-12-12T14:07:34.222Z,280.75
2018-12-12T14:10:06.207Z,265.25
2018-12-12T14:12:38.068Z,261.50
2018-12-12T14:15:09.733Z,285.25
2018-12-12T14:17:41.583Z,278.50
2018-12-12T14:20:13.543Z,281.00
2018-12-12T14:22:46.635Z,308.00
2018-12-12T14:25:18.492Z,298.50
2018-12-12T14:27:50.937Z,233.50
2018-12-12T14:30:25.084Z,315.25
2018-12-12T14:32:57.056Z,302.25
2018-12-12T14:35:30.106Z,298.75
2018-12-12T14:38:02.162Z,324.00
2018-12-12T14:40:34.495Z,331.25
2018-12-12T14:43:06.399Z,310.50
2018-12-12T14:45:39.268Z,305.75
2018-12-12T14:48:11.443Z,346.25
2018-12-12T14:50:43.326Z,333.00
2018-12-12T14:53:15.089Z,344.00
2018-12-12T14:55:46.912Z,337.75
2018-12-12T14:58:19.585Z,323.75
2018-12-12T15:00:51.725Z,330.50
2018-12-12T15:03:28.431Z,323.50
2018-12-12T15:06:00.171Z,348.25
2018-12-12T15:08:33.230Z,333.50
2018-12-12T15:11:05.289Z,344.50
2018-12-12T15:13:37.124Z,381.50
2018-12-12T15:16:09.039Z,369.25
2018-12-12T15:18:40.806Z,376.75
2018-12-12T15:21:14.881Z,364.50
2018-12-12T15:23:47.905Z,367.25
2018-12-12T15:26:19.867Z,338.75
2018-12-12T15:28:52.688Z,350.00
2018-12-12T15:31:24.678Z,357.00
2018-12-12T15:33:57.047Z,396.00
2018-12-12T15:36:28.975Z,344.25
2018-12-12T15:39:01.209Z,333.75
2018-12-12T15:41:36.049Z,346.00
2018-12-12T15:44:08.138Z,338.75
2018-12-12T15:46:39.918Z,330.50
2018-12-12T15:49:42.399Z,337.00
2018-12-12T16:05:59.900Z,333.20
2018-12-12T16:08:32.124Z,358.25
2018-12-12T16:13:46.478Z,341.20
2018-12-12T16:16:18.680Z,368.50
2018-12-12T16:18:50.806Z,356.25
2018-12-12T16:21:22.836Z,349.75
2018-12-12T16:23:54.738Z,355.75
2018-12-12T16:26:27.069Z,360.50
2018-12-12T16:28:59.320Z,356.75
2018-12-12T16:31:31.250Z,375.25
2018-12-12T16:34:03.276Z,382.50
2018-12-12T16:36:35.070Z,380.50
2018-12-12T16:39:09.175Z,382.75
2018-12-12T16:41:41.329Z,349.25
2018-12-12T16:44:13.165Z,345.50
2018-12-12T16:46:51.305Z,333.25
2018-12-12T16:49:23.124Z,329.00
2018-12-12T16:51:54.902Z,314.25
2018-12-12T16:54:27.279Z,314.00
2018-12-12T16:56:58.895Z,308.25
2018-12-12T16:59:36.426Z,305.00
2018-12-12T17:02:08.240Z,335.50
2018-12-12T17:04:39.953Z,331.75
2018-12-12T17:07:12.729Z,341.50
2018-12-12T17:09:44.946Z,341.25
2018-12-12T17:12:16.423Z,340.00
2018-12-12T17:14:48.243Z,347.00
2018-12-12T17:17:20.172Z,311.25
2018-12-12T17:19:52.016Z,348.75
2018-12-12T17:22:24.014Z,314.00
2018-12-12T17:24:56.044Z,355.50
2018-12-12T17:27:27.799Z,350.00
2018-12-12T17:29:59.804Z,323.75
2018-12-12T17:32:32.918Z,320.00
2018-12-12T17:35:08.810Z,286.75
2018-12-12T17:37:38.797Z,293.50
2018-12-12T17:40:11.220Z,300.50
2018-12-12T17:42:42.985Z,292.00
2018-12-12T17:45:14.892Z,307.75
2018-12-12T17:47:48.025Z,321.75
2018-12-12T17:50:21.201Z,279.25
2018-12-12T17:52:53.253Z,266.25
2018-12-12T17:55:25.516Z,281.50
2018-12-12T17:57:58.266Z,274.25
2018-12-12T18:00:30.282Z,293.50
2018-12-12T18:03:04.496Z,304.25
2018-12-12T18:05:57.146Z,276.50
2018-12-12T18:08:29.084Z,301.75
2018-12-12T18:11:01.510Z,290.50
2018-12-12T18:13:35.702Z,272.75
2018-12-12T18:16:09.625Z,273.50
2018-12-12T18:18:42.780Z,235.75
2018-12-12T18:21:14.651Z,227.75
2018-12-12T18:23:50.025Z,253.00
2018-12-12T18:26:22.156Z,241.50
2018-12-12T18:28:54.500Z,252.00
2018-12-12T18:31:30.918Z,255.25
2018-12-12T18:34:20.483Z,245.75
2018-12-12T18:36:52.522Z,222.00
2018-12-12T18:39:24.215Z,232.00
2018-12-12T18:41:56.324Z,243.25
2018-12-12T18:44:34.305Z,256.50
2018-12-12T18:47:06.112Z,245.25
2018-12-12T18:49:43.589Z,238.00
2018-12-12T18:52:17.473Z,243.00
2018-12-12T18:54:49.140Z,252.25
2018-12-12T18:57:23.010Z,247.50
2018-12-12T18:59:54.687Z,230.00
2018-12-12T19:02:26.302Z,241.25
2018-12-12T19:04:58.299Z,235.75
2018-12-12T19:07:29.907Z,248.75
2018-12-12T19:10:03.351Z,227.50
2018-12-12T19:12:35.735Z,247.25
2018-12-12T19:15:09.358Z,244.25
2018-12-12T19:17:41.336Z,236.00
2018-12-12T19:20:13.472Z,246.75
2018-12-12T19:22:45.514Z,235.25
2018-12-12T19:25:17.587Z,264.75
2018-12-12T19:27:49.273Z,241.25
2018-12-12T19:30:21.470Z,267.50
2018-12-12T19:32:54.378Z,251.75
2018-12-12T19:35:26.119Z,255.75
2018-12-12T19:37:58.977Z,290.00
2018-12-12T19:40:30.975Z,266.00
2018-12-12T19:43:04.347Z,285.50
2018-12-12T19:45:37.245Z,280.75
2018-12-12T19:48:08.922Z,263.25
2018-12-12T19:50:41.068Z,249.25
2018-12-12T19:53:14.168Z,277.00
2018-12-12T19:55:46.329Z,257.75
2018-12-12T19:58:18.144Z,261.75
2018-12-12T20:00:49.762Z,270.75
2018-12-12T20:03:22.044Z,257.25
2018-12-12T20:05:54.787Z,272.75
2018-12-12T20:08:26.717Z,282.50
2018-12-12T20:10:58.870Z,253.25
2018-12-12T20:13:30.982Z,278.75
2018-12-12T20:16:02.954Z,248.75
2018-12-12T20:18:35.175Z,256.50
2018-12-12T20:21:07.207Z,289.25
2018-12-12T20:23:38.827Z,257.25
2018-12-12T20:26:10.706Z,231.25
2018-12-12T20:28:42.456Z,283.50
2018-12-12T20:31:14.803Z,266.00
2018-12-12T20:33:46.902Z,244.50
2018-12-12T20:36:19.081Z,280.50
2018-12-12T20:38:52.292Z,263.75
2018-12-12T20:41:24.633Z,268.25
2018-12-12T20:43:56.788Z,277.25
2018-12-12T20:46:29.901Z,263.75
2018-12-12T20:49:01.712Z,284.50
2018-12-12T20:51:34.471Z,268.00
2018-12-12T20:54:07.171Z,268.00
2018-12-12T20:56:39.212Z,267.75
2018-12-12T20:59:10.977Z,272.75
2018-12-12T21:01:42.543Z,262.50
2018-12-12T21:04:15.444Z,255.00
2018-12-12T21:06:48.735Z,241.25
2018-12-12T21:09:24.034Z,258.75
2018-12-12T21:11:56.509Z,276.00
2018-12-12T21:14:28.976Z,262.25
2018-12-12T21:17:01.993Z,265.50
2018-12-12T21:19:34.990Z,263.75
2018-12-12T21:22:08.277Z,279.50
2018-12-12T21:24:40.206Z,282.00
2018-12-12T21:27:12.026Z,233.00
2018-12-12T21:29:43.495Z,271.25
2018-12-12T21:32:15.334Z,262.25
2018-12-12T21:34:47.883Z,283.50
2018-12-12T21:37:20.790Z,292.00
2018-12-12T21:39:52.723Z,250.50
2018-12-12T21:42:24.961Z,282.25
2018-12-12T21:44:57.300Z,301.25
2018-12-12T21:47:30.527Z,273.25
2018-12-12T21:50:02.273Z,290.25
2018-12-12T21:52:34.482Z,264.75
2018-12-12T21:55:06.154Z,286.75
2018-12-12T21:57:39.268Z,313.50
2018-12-12T22:00:11.860Z,237.50
2018-12-12T22:02:43.834Z,278.25
2018-12-12T22:05:16.544Z,260.50
2018-12-12T22:07:48.313Z,288.00
2018-12-12T22:10:20.357Z,261.25
2018-12-12T22:12:52.280Z,261.75
2018-12-12T22:15:24.634Z,242.50
2018-12-12T22:17:56.553Z,276.50
2018-12-12T22:20:28.374Z,261.00
2018-12-12T22:23:00.642Z,265.00
2018-12-12T22:25:32.772Z,278.50
2018-12-12T22:28:04.962Z,261.00
2018-12-12T22:30:36.833Z,254.00
2018-12-12T22:33:09.251Z,267.00
2018-12-12T22:35:41.166Z,228.25
2018-12-12T22:38:13.423Z,249.00
2018-12-12T22:40:45.336Z,249.50
2018-12-12T22:43:17.432Z,267.00
2018-12-12T22:45:49.786Z,270.75
2018-12-12T22:48:25.765Z,244.75
2018-12-12T22:50:57.428Z,228.50
2018-12-12T22:53:30.346Z,239.25
2018-12-12T22:56:02.871Z,270.50
2018-12-12T22:58:34.537Z,292.75
2018-12-12T23:01:13.785Z,305.00
2018-12-12T23:03:47.901Z,290.00
2018-12-12T23:06:20.818Z,272.75
2018-12-12T23:08:52.643Z,256.50
2018-12-12T23:11:25.434Z,283.25
2018-12-12T23:13:57.377Z,263.00
2018-12-12T23:16:29.656Z,289.25
2018-12-12T23:19:01.237Z,283.75
2018-12-12T23:21:33.269Z,267.00
2018-12-12T23:24:05.379Z,250.25
2018-12-12T23:26:38.092Z,281.50
2018-12-12T23:29:10.085Z,263.50
2018-12-12T23:31:41.633Z,272.00
2018-12-12T23:34:13.693Z,292.00
2018-12-12T23:36:45.412Z,295.50
2018-12-12T23:39:17.291Z,280.50
2018-12-12T23:41:49.006Z,282.50
2018-12-12T23:44:20.973Z,283.00
2018-12-12T23:46:53.166Z,259.50
2018-12-12T23:49:25.071Z,268.75
2018-12-12T23:51:56.953Z,255.00
2018-12-12T23:54:28.688Z,282.50
2018-12-12T23:57:00.368Z,280.00
2018-12-12T23:59:32.059Z,277.00
